Capitol Logistics 31


RJAA
Tokyo-Narita International Airport
Tokyo, JP
PANC
Ted Stevens Anchorage International Airport
Anchorage, US

Route Details

Aircraft Information
Primary: Boeing 777-200LRF
Backup: Boeing 767-300BDSF
Route Data
Distance: 2981nm
Sched. Duration: 6h 20m
Avg. Duration: 6h 91m (+72m)
Times Flown: 13
Recm'd Route: CUPID Y808 ALLEN Y812 SCORE R591 EHM R591 HAMND NEELL6
Planned Altitude: 33,000ft
Origin Wx: RJAA 221730Z 33004KT 4000 -SHRA BR FEW004 BKN006 16/16 Q1009 TEMPO FEW003 BKN005 RMK 1ST004 7ST006 A2980
Dest. Wx: PANC 221653Z 00000KT 10SM CLR M02/M09 A3045 RMK AO2 SLP313 T10221089 $
Notes:

Financial History
Total Freight: 1,427,547lbs
Average Load: 109,811lbs/flt
Fuel Used: 1,040,786lbs
Avg. Fuel Used: 80,060lbs/flt
Fuel Expense: $832,629
Avg. Fuel Expense: $64,048
Avg. Fuel Cost: $0.80/lbs
Total Gross Income: $4,466,487
Pilot Pay: $2,807
Total Expenses: $472,565
Total Revenue: $3,138,234
Average Revenue: $343,575.89